Terminal Aerodrome Forecast
Issued by NWS Memphis, TN

Home | Current Version | Previous Version | Text Only | Print | Product List | Glossary On
Versions: 1 2 3 4 5 6 7 8 9 10 11 12 13 14 15 16
000
FTUS44 KMEG 041728
TAFMKL
TAF
KMKL 041728Z 0418/0518 26011G21KT P6SM VCTS SCT070CB
     FM042100 33019G27KT P6SM SCT070
     FM050300 33006KT P6SM SKC
     FM051500 34016G22KT P6SM FEW250=

USA.gov is the U.S. government's official web portal to all federal, state and local government web resources and services.